sensor_id;sensor_type;location;lat;lon;timestamp;P1;durP1;ratioP1;P2;durP2;ratioP2
54937;SDS011;52756;52.826;6.214;2022-09-17T00:01:09;11.02;;;2.83;;
54937;SDS011;52756;52.826;6.214;2022-09-17T00:03:40;9.57;;;2.38;;
54937;SDS011;52756;52.826;6.214;2022-09-17T00:06:07;11.18;;;2.63;;
54937;SDS011;52756;52.826;6.214;2022-09-17T00:08:35;9.85;;;2.25;;
54937;SDS011;52756;52.826;6.214;2022-09-17T00:11:36;10.98;;;2.00;;
54937;SDS011;52756;52.826;6.214;2022-09-17T00:13:57;12.60;;;2.70;;
54937;SDS011;52756;52.826;6.214;2022-09-17T00:16:26;12.35;;;2.03;;
54937;SDS011;52756;52.826;6.214;2022-09-17T00:18:57;16.75;;;3.47;;
54937;SDS011;52756;52.826;6.214;2022-09-17T00:21:24;13.38;;;2.85;;
54937;SDS011;52756;52.826;6.214;2022-09-17T00:23:54;15.52;;;2.90;;
54937;SDS011;52756;52.826;6.214;2022-09-17T00:26:21;12.45;;;2.70;;
54937;SDS011;52756;52.826;6.214;2022-09-17T00:28:48;13.70;;;2.20;;
54937;SDS011;52756;52.826;6.214;2022-09-17T00:31:18;10.90;;;2.83;;
54937;SDS011;52756;52.826;6.214;2022-09-17T00:33:45;11.18;;;2.10;;
54937;SDS011;52756;52.826;6.214;2022-09-17T00:36:11;9.68;;;2.28;;
54937;SDS011;52756;52.826;6.214;2022-09-17T00:38:36;15.00;;;2.58;;
54937;SDS011;52756;52.826;6.214;2022-09-17T00:41:02;9.02;;;2.47;;
54937;SDS011;52756;52.826;6.214;2022-09-17T00:46:08;14.93;;;3.67;;
54937;SDS011;52756;52.826;6.214;2022-09-17T00:48:42;10.82;;;2.08;;
54937;SDS011;52756;52.826;6.214;2022-09-17T00:51:09;12.90;;;2.35;;
54937;SDS011;52756;52.826;6.214;2022-09-17T00:53:38;11.15;;;2.38;;
54937;SDS011;52756;52.826;6.214;2022-09-17T00:56:06;10.18;;;1.92;;
54937;SDS011;52756;52.826;6.214;2022-09-17T00:58:38;13.73;;;2.40;;
54937;SDS011;52756;52.826;6.214;2022-09-17T01:01:04;10.25;;;1.92;;
54937;SDS011;52756;52.826;6.214;2022-09-17T01:03:30;13.27;;;2.35;;
54937;SDS011;52756;52.826;6.214;2022-09-17T01:06:04;9.63;;;1.83;;
54937;SDS011;52756;52.826;6.214;2022-09-17T01:11:39;9.38;;;2.03;;
54937;SDS011;52756;52.826;6.214;2022-09-17T01:14:20;10.88;;;1.98;;
54937;SDS011;52756;52.826;6.214;2022-09-17T01:19:31;14.73;;;3.00;;
54937;SDS011;52756;52.826;6.214;2022-09-17T01:33:41;7.95;;;1.98;;
54937;SDS011;52756;52.826;6.214;2022-09-17T01:41:55;10.07;;;1.88;;
54937;SDS011;52756;52.826;6.214;2022-09-17T01:49:52;9.38;;;1.83;;
54937;SDS011;52756;52.826;6.214;2022-09-17T01:52:21;7.20;;;1.52;;
54937;SDS011;52756;52.826;6.214;2022-09-17T01:54:50;9.05;;;1.95;;
54937;SDS011;52756;52.826;6.214;2022-09-17T02:00:09;8.23;;;1.77;;
54937;SDS011;52756;52.826;6.214;2022-09-17T02:05:17;9.45;;;1.73;;
54937;SDS011;52756;52.826;6.214;2022-09-17T02:07:45;11.10;;;2.20;;
54937;SDS011;52756;52.826;6.214;2022-09-17T02:10:17;9.57;;;1.88;;
54937;SDS011;52756;52.826;6.214;2022-09-17T02:12:47;9.13;;;1.85;;
54937;SDS011;52756;52.826;6.214;2022-09-17T02:15:20;13.07;;;2.30;;
54937;SDS011;52756;52.826;6.214;2022-09-17T02:17:55;6.80;;;1.30;;
54937;SDS011;52756;52.826;6.214;2022-09-17T02:20:47;5.70;;;1.42;;
54937;SDS011;52756;52.826;6.214;2022-09-17T02:23:26;10.32;;;2.03;;
54937;SDS011;52756;52.826;6.214;2022-09-17T02:26:00;7.82;;;2.15;;
54937;SDS011;52756;52.826;6.214;2022-09-17T02:28:41;10.15;;;1.58;;
54937;SDS011;52756;52.826;6.214;2022-09-17T02:31:13;11.80;;;1.63;;
54937;SDS011;52756;52.826;6.214;2022-09-17T02:33:40;8.07;;;1.55;;
54937;SDS011;52756;52.826;6.214;2022-09-17T02:36:09;10.00;;;1.70;;
54937;SDS011;52756;52.826;6.214;2022-09-17T02:38:36;7.88;;;1.60;;
54937;SDS011;52756;52.826;6.214;2022-09-17T02:46:13;5.22;;;1.10;;
54937;SDS011;52756;52.826;6.214;2022-09-17T02:57:15;7.70;;;1.35;;
54937;SDS011;52756;52.826;6.214;2022-09-17T03:05:07;7.65;;;1.73;;
54937;SDS011;52756;52.826;6.214;2022-09-17T03:07:34;6.95;;;1.30;;
54937;SDS011;52756;52.826;6.214;2022-09-17T03:10:01;8.20;;;2.00;;
54937;SDS011;52756;52.826;6.214;2022-09-17T03:12:26;7.20;;;1.30;;
54937;SDS011;52756;52.826;6.214;2022-09-17T03:14:52;7.60;;;1.55;;
54937;SDS011;52756;52.826;6.214;2022-09-17T03:17:18;8.05;;;1.95;;
54937;SDS011;52756;52.826;6.214;2022-09-17T03:19:43;8.70;;;1.63;;
54937;SDS011;52756;52.826;6.214;2022-09-17T03:22:09;9.73;;;1.65;;
54937;SDS011;52756;52.826;6.214;2022-09-17T03:24:36;8.40;;;1.65;;
54937;SDS011;52756;52.826;6.214;2022-09-17T03:27:02;9.45;;;1.77;;
54937;SDS011;52756;52.826;6.214;2022-09-17T03:29:27;7.10;;;1.25;;
54937;SDS011;52756;52.826;6.214;2022-09-17T03:31:53;6.22;;;1.58;;
54937;SDS011;52756;52.826;6.214;2022-09-17T03:34:19;5.65;;;1.27;;
54937;SDS011;52756;52.826;6.214;2022-09-17T03:36:45;9.00;;;1.15;;
54937;SDS011;52756;52.826;6.214;2022-09-17T03:39:11;9.48;;;2.03;;
54937;SDS011;52756;52.826;6.214;2022-09-17T03:41:37;8.10;;;1.65;;
54937;SDS011;52756;52.826;6.214;2022-09-17T03:44:03;12.98;;;1.73;;
54937;SDS011;52756;52.826;6.214;2022-09-17T03:46:29;9.98;;;1.73;;
54937;SDS011;52756;52.826;6.214;2022-09-17T03:48:55;11.40;;;1.70;;
54937;SDS011;52756;52.826;6.214;2022-09-17T03:51:20;8.25;;;1.40;;
54937;SDS011;52756;52.826;6.214;2022-09-17T03:53:46;7.20;;;1.27;;
54937;SDS011;52756;52.826;6.214;2022-09-17T03:56:12;11.18;;;1.85;;
54937;SDS011;52756;52.826;6.214;2022-09-17T03:58:38;11.77;;;1.92;;
54937;SDS011;52756;52.826;6.214;2022-09-17T04:01:04;11.82;;;1.70;;
54937;SDS011;52756;52.826;6.214;2022-09-17T04:03:30;14.35;;;2.53;;
54937;SDS011;52756;52.826;6.214;2022-09-17T04:05:56;6.85;;;1.55;;
54937;SDS011;52756;52.826;6.214;2022-09-17T04:08:22;5.90;;;1.67;;
54937;SDS011;52756;52.826;6.214;2022-09-17T04:10:48;9.27;;;1.60;;
54937;SDS011;52756;52.826;6.214;2022-09-17T04:13:16;11.63;;;2.45;;
54937;SDS011;52756;52.826;6.214;2022-09-17T04:15:43;8.55;;;1.50;;
54937;SDS011;52756;52.826;6.214;2022-09-17T04:18:09;8.25;;;1.35;;
54937;SDS011;52756;52.826;6.214;2022-09-17T04:20:36;7.82;;;1.40;;
54937;SDS011;52756;52.826;6.214;2022-09-17T04:23:02;9.63;;;2.13;;
54937;SDS011;52756;52.826;6.214;2022-09-17T04:25:28;6.28;;;1.30;;
54937;SDS011;52756;52.826;6.214;2022-09-17T04:27:54;9.68;;;1.70;;
54937;SDS011;52756;52.826;6.214;2022-09-17T04:30:19;6.82;;;1.58;;
54937;SDS011;52756;52.826;6.214;2022-09-17T04:32:45;8.40;;;1.15;;
54937;SDS011;52756;52.826;6.214;2022-09-17T04:35:11;7.43;;;1.80;;
54937;SDS011;52756;52.826;6.214;2022-09-17T04:37:37;8.85;;;1.80;;
54937;SDS011;52756;52.826;6.214;2022-09-17T04:40:03;10.15;;;1.65;;
54937;SDS011;52756;52.826;6.214;2022-09-17T04:42:30;11.02;;;2.35;;
54937;SDS011;52756;52.826;6.214;2022-09-17T04:44:55;8.63;;;1.77;;
54937;SDS011;52756;52.826;6.214;2022-09-17T04:47:22;7.63;;;1.50;;
54937;SDS011;52756;52.826;6.214;2022-09-17T04:49:48;9.18;;;1.88;;
54937;SDS011;52756;52.826;6.214;2022-09-17T04:52:13;9.25;;;1.60;;
54937;SDS011;52756;52.826;6.214;2022-09-17T04:54:39;9.88;;;1.55;;
54937;SDS011;52756;52.826;6.214;2022-09-17T04:57:05;11.48;;;2.00;;
54937;SDS011;52756;52.826;6.214;2022-09-17T04:59:30;11.50;;;1.80;;
54937;SDS011;52756;52.826;6.214;2022-09-17T05:01:56;7.10;;;1.40;;
54937;SDS011;52756;52.826;6.214;2022-09-17T05:04:22;9.02;;;1.85;;
54937;SDS011;52756;52.826;6.214;2022-09-17T05:06:48;11.82;;;2.00;;
54937;SDS011;52756;52.826;6.214;2022-09-17T05:09:14;7.35;;;1.40;;
54937;SDS011;52756;52.826;6.214;2022-09-17T05:11:39;10.13;;;1.73;;
54937;SDS011;52756;52.826;6.214;2022-09-17T05:14:05;5.57;;;1.08;;
54937;SDS011;52756;52.826;6.214;2022-09-17T05:16:31;6.95;;;1.30;;
54937;SDS011;52756;52.826;6.214;2022-09-17T05:18:57;6.90;;;1.45;;
54937;SDS011;52756;52.826;6.214;2022-09-17T05:21:22;14.45;;;1.83;;
54937;SDS011;52756;52.826;6.214;2022-09-17T05:23:48;9.57;;;1.35;;
54937;SDS011;52756;52.826;6.214;2022-09-17T05:26:14;9.85;;;2.25;;
54937;SDS011;52756;52.826;6.214;2022-09-17T05:28:40;7.82;;;1.50;;
54937;SDS011;52756;52.826;6.214;2022-09-17T05:31:06;11.48;;;2.03;;
54937;SDS011;52756;52.826;6.214;2022-09-17T05:33:32;6.10;;;1.45;;
54937;SDS011;52756;52.826;6.214;2022-09-17T05:35:58;8.40;;;1.55;;
54937;SDS011;52756;52.826;6.214;2022-09-17T05:38:24;5.75;;;1.42;;
54937;SDS011;52756;52.826;6.214;2022-09-17T05:40:50;6.68;;;1.55;;
54937;SDS011;52756;52.826;6.214;2022-09-17T05:43:15;6.32;;;1.10;;
54937;SDS011;52756;52.826;6.214;2022-09-17T05:45:42;6.53;;;1.23;;
54937;SDS011;52756;52.826;6.214;2022-09-17T05:48:12;7.63;;;1.30;;
54937;SDS011;52756;52.826;6.214;2022-09-17T05:50:38;8.32;;;1.50;;
54937;SDS011;52756;52.826;6.214;2022-09-17T05:53:14;9.00;;;1.75;;
54937;SDS011;52756;52.826;6.214;2022-09-17T05:55:40;7.05;;;1.60;;
54937;SDS011;52756;52.826;6.214;2022-09-17T05:58:09;9.95;;;1.60;;
54937;SDS011;52756;52.826;6.214;2022-09-17T06:00:36;12.02;;;2.35;;
54937;SDS011;52756;52.826;6.214;2022-09-17T06:03:02;8.48;;;1.48;;
54937;SDS011;52756;52.826;6.214;2022-09-17T06:05:28;8.50;;;1.70;;
54937;SDS011;52756;52.826;6.214;2022-09-17T06:07:54;9.07;;;1.40;;
54937;SDS011;52756;52.826;6.214;2022-09-17T06:10:19;10.02;;;2.80;;
54937;SDS011;52756;52.826;6.214;2022-09-17T06:12:45;6.32;;;1.42;;
54937;SDS011;52756;52.826;6.214;2022-09-17T06:15:11;6.38;;;1.45;;
54937;SDS011;52756;52.826;6.214;2022-09-17T06:17:39;8.95;;;1.55;;
54937;SDS011;52756;52.826;6.214;2022-09-17T06:20:05;9.07;;;1.55;;
54937;SDS011;52756;52.826;6.214;2022-09-17T06:22:31;9.13;;;1.58;;
54937;SDS011;52756;52.826;6.214;2022-09-17T06:24:57;8.82;;;1.63;;
54937;SDS011;52756;52.826;6.214;2022-09-17T06:27:34;8.20;;;2.08;;
54937;SDS011;52756;52.826;6.214;2022-09-17T06:30:00;9.65;;;1.65;;
54937;SDS011;52756;52.826;6.214;2022-09-17T06:32:26;7.82;;;1.40;;
54937;SDS011;52756;52.826;6.214;2022-09-17T06:34:52;9.02;;;1.95;;
54937;SDS011;52756;52.826;6.214;2022-09-17T06:37:19;7.80;;;1.95;;
54937;SDS011;52756;52.826;6.214;2022-09-17T06:39:51;8.50;;;1.90;;
54937;SDS011;52756;52.826;6.214;2022-09-17T06:42:16;8.40;;;1.35;;
54937;SDS011;52756;52.826;6.214;2022-09-17T06:44:42;7.40;;;1.67;;
54937;SDS011;52756;52.826;6.214;2022-09-17T06:47:08;9.30;;;2.33;;
54937;SDS011;52756;52.826;6.214;2022-09-17T06:49:33;7.03;;;1.35;;
54937;SDS011;52756;52.826;6.214;2022-09-17T06:51:59;7.72;;;1.60;;
54937;SDS011;52756;52.826;6.214;2022-09-17T06:54:25;8.98;;;1.38;;
54937;SDS011;52756;52.826;6.214;2022-09-17T06:56:51;8.32;;;1.63;;
54937;SDS011;52756;52.826;6.214;2022-09-17T06:59:16;8.52;;;1.58;;
54937;SDS011;52756;52.826;6.214;2022-09-17T07:01:42;5.93;;;1.60;;
54937;SDS011;52756;52.826;6.214;2022-09-17T07:04:08;7.43;;;1.35;;
54937;SDS011;52756;52.826;6.214;2022-09-17T07:06:34;7.78;;;1.10;;
54937;SDS011;52756;52.826;6.214;2022-09-17T07:08:59;10.00;;;1.27;;
54937;SDS011;52756;52.826;6.214;2022-09-17T07:11:25;6.97;;;1.27;;
54937;SDS011;52756;52.826;6.214;2022-09-17T07:13:51;6.30;;;1.30;;
54937;SDS011;52756;52.826;6.214;2022-09-17T07:16:16;7.75;;;1.27;;
54937;SDS011;52756;52.826;6.214;2022-09-17T07:18:43;6.20;;;1.00;;
54937;SDS011;52756;52.826;6.214;2022-09-17T07:21:09;4.07;;;0.90;;
54937;SDS011;52756;52.826;6.214;2022-09-17T07:23:35;6.82;;;1.00;;
54937;SDS011;52756;52.826;6.214;2022-09-17T07:26:05;6.20;;;1.15;;
54937;SDS011;52756;52.826;6.214;2022-09-17T07:31:03;6.70;;;1.60;;
54937;SDS011;52756;52.826;6.214;2022-09-17T07:33:29;8.73;;;1.27;;
54937;SDS011;52756;52.826;6.214;2022-09-17T07:35:59;10.32;;;1.40;;
54937;SDS011;52756;52.826;6.214;2022-09-17T07:38:27;4.25;;;0.90;;
54937;SDS011;52756;52.826;6.214;2022-09-17T07:41:01;5.38;;;0.98;;
54937;SDS011;52756;52.826;6.214;2022-09-17T07:43:30;6.22;;;1.50;;
54937;SDS011;52756;52.826;6.214;2022-09-17T07:45:58;5.38;;;1.20;;
54937;SDS011;52756;52.826;6.214;2022-09-17T07:48:25;5.35;;;1.00;;
54937;SDS011;52756;52.826;6.214;2022-09-17T07:50:51;4.75;;;0.93;;
54937;SDS011;52756;52.826;6.214;2022-09-17T07:53:17;7.13;;;0.93;;
54937;SDS011;52756;52.826;6.214;2022-09-17T07:55:49;4.97;;;0.73;;
54937;SDS011;52756;52.826;6.214;2022-09-17T07:58:20;4.13;;;1.00;;
54937;SDS011;52756;52.826;6.214;2022-09-17T08:00:47;5.00;;;0.70;;
54937;SDS011;52756;52.826;6.214;2022-09-17T08:03:13;4.15;;;1.05;;
54937;SDS011;52756;52.826;6.214;2022-09-17T08:05:39;6.30;;;0.90;;
54937;SDS011;52756;52.826;6.214;2022-09-17T08:08:05;2.88;;;1.10;;
54937;SDS011;52756;52.826;6.214;2022-09-17T08:10:31;3.03;;;0.50;;
54937;SDS011;52756;52.826;6.214;2022-09-17T08:12:56;3.53;;;0.50;;
54937;SDS011;52756;52.826;6.214;2022-09-17T08:15:23;3.90;;;0.52;;
54937;SDS011;52756;52.826;6.214;2022-09-17T08:17:49;3.80;;;0.77;;
54937;SDS011;52756;52.826;6.214;2022-09-17T08:20:15;6.03;;;0.93;;
54937;SDS011;52756;52.826;6.214;2022-09-17T08:22:42;6.45;;;0.93;;
54937;SDS011;52756;52.826;6.214;2022-09-17T08:25:08;4.53;;;0.77;;
54937;SDS011;52756;52.826;6.214;2022-09-17T08:27:34;5.07;;;0.85;;
54937;SDS011;52756;52.826;6.214;2022-09-17T08:30:03;4.13;;;1.08;;
54937;SDS011;52756;52.826;6.214;2022-09-17T08:32:30;7.53;;;1.35;;
54937;SDS011;52756;52.826;6.214;2022-09-17T08:34:55;6.28;;;0.80;;
54937;SDS011;52756;52.826;6.214;2022-09-17T08:37:21;4.57;;;0.88;;
54937;SDS011;52756;52.826;6.214;2022-09-17T08:39:47;1.88;;;0.50;;
54937;SDS011;52756;52.826;6.214;2022-09-17T08:44:48;4.68;;;0.90;;
54937;SDS011;52756;52.826;6.214;2022-09-17T08:47:21;5.00;;;1.05;;
54937;SDS011;52756;52.826;6.214;2022-09-17T08:49:58;3.88;;;0.57;;
54937;SDS011;52756;52.826;6.214;2022-09-17T09:12:30;3.10;;;0.75;;
54937;SDS011;52756;52.826;6.214;2022-09-17T09:15:00;4.03;;;0.70;;
54937;SDS011;52756;52.826;6.214;2022-09-17T09:17:32;6.90;;;0.88;;
54937;SDS011;52756;52.826;6.214;2022-09-17T09:20:04;3.75;;;1.00;;
54937;SDS011;52756;52.826;6.214;2022-09-17T09:22:44;7.43;;;1.58;;
54937;SDS011;52756;52.826;6.214;2022-09-17T09:27:47;4.95;;;1.10;;
54937;SDS011;52756;52.826;6.214;2022-09-17T09:30:21;5.10;;;1.02;;
54937;SDS011;52756;52.826;6.214;2022-09-17T09:35:40;7.20;;;0.98;;
54937;SDS011;52756;52.826;6.214;2022-09-17T09:40:35;7.93;;;1.10;;
54937;SDS011;52756;52.826;6.214;2022-09-17T09:43:21;6.95;;;1.10;;
54937;SDS011;52756;52.826;6.214;2022-09-17T09:55:53;8.52;;;1.60;;
54937;SDS011;52756;52.826;6.214;2022-09-17T09:58:10;7.07;;;1.30;;
54937;SDS011;52756;52.826;6.214;2022-09-17T10:00:49;5.25;;;1.38;;
54937;SDS011;52756;52.826;6.214;2022-09-17T10:03:20;9.48;;;1.73;;
54937;SDS011;52756;52.826;6.214;2022-09-17T10:08:39;8.23;;;1.15;;
54937;SDS011;52756;52.826;6.214;2022-09-17T10:11:26;7.70;;;1.60;;
54937;SDS011;52756;52.826;6.214;2022-09-17T10:13:56;7.50;;;1.50;;
54937;SDS011;52756;52.826;6.214;2022-09-17T10:16:48;5.50;;;1.45;;
54937;SDS011;52756;52.826;6.214;2022-09-17T10:19:18;7.43;;;1.17;;
54937;SDS011;52756;52.826;6.214;2022-09-17T10:21:49;3.67;;;1.15;;
54937;SDS011;52756;52.826;6.214;2022-09-17T10:27:04;5.45;;;1.00;;
54937;SDS011;52756;52.826;6.214;2022-09-17T10:29:37;4.38;;;0.68;;
54937;SDS011;52756;52.826;6.214;2022-09-17T10:32:12;3.72;;;0.70;;
54937;SDS011;52756;52.826;6.214;2022-09-17T10:34:40;5.88;;;0.90;;
54937;SDS011;52756;52.826;6.214;2022-09-17T10:37:34;4.22;;;0.90;;
54937;SDS011;52756;52.826;6.214;2022-09-17T10:42:50;5.13;;;0.73;;
54937;SDS011;52756;52.826;6.214;2022-09-17T10:45:35;6.00;;;1.25;;
54937;SDS011;52756;52.826;6.214;2022-09-17T10:48:04;5.53;;;1.00;;
54937;SDS011;52756;52.826;6.214;2022-09-17T10:50:30;5.18;;;1.10;;
54937;SDS011;52756;52.826;6.214;2022-09-17T10:53:05;5.07;;;1.02;;
54937;SDS011;52756;52.826;6.214;2022-09-17T11:09:23;4.40;;;0.90;;
54937;SDS011;52756;52.826;6.214;2022-09-17T11:22:58;7.07;;;1.30;;
54937;SDS011;52756;52.826;6.214;2022-09-17T11:33:50;3.40;;;0.50;;
54937;SDS011;52756;52.826;6.214;2022-09-17T11:39:32;5.65;;;0.65;;
54937;SDS011;52756;52.826;6.214;2022-09-17T11:42:13;4.70;;;1.08;;
54937;SDS011;52756;52.826;6.214;2022-09-17T11:44:48;4.05;;;0.88;;
54937;SDS011;52756;52.826;6.214;2022-09-17T11:47:27;4.85;;;0.88;;
54937;SDS011;52756;52.826;6.214;2022-09-17T11:50:03;4.35;;;1.10;;
54937;SDS011;52756;52.826;6.214;2022-09-17T11:52:46;5.85;;;1.27;;
54937;SDS011;52756;52.826;6.214;2022-09-17T11:58:14;7.00;;;1.38;;
54937;SDS011;52756;52.826;6.214;2022-09-17T12:00:53;6.30;;;1.30;;
54937;SDS011;52756;52.826;6.214;2022-09-17T12:04:15;6.95;;;1.05;;
54937;SDS011;52756;52.826;6.214;2022-09-17T12:06:34;6.65;;;1.40;;
54937;SDS011;52756;52.826;6.214;2022-09-17T12:09:11;8.35;;;1.50;;
54937;SDS011;52756;52.826;6.214;2022-09-17T12:11:44;5.10;;;1.20;;
54937;SDS011;52756;52.826;6.214;2022-09-17T12:14:45;5.80;;;1.30;;
54937;SDS011;52756;52.826;6.214;2022-09-17T12:17:23;6.32;;;1.27;;
54937;SDS011;52756;52.826;6.214;2022-09-17T12:20:00;8.02;;;1.67;;
54937;SDS011;52756;52.826;6.214;2022-09-17T12:22:34;8.85;;;1.67;;
54937;SDS011;52756;52.826;6.214;2022-09-17T12:25:05;7.63;;;1.48;;
54937;SDS011;52756;52.826;6.214;2022-09-17T12:40:35;8.10;;;1.40;;
54937;SDS011;52756;52.826;6.214;2022-09-17T12:59:19;10.70;;;2.22;;
54937;SDS011;52756;52.826;6.214;2022-09-17T13:01:54;12.07;;;2.28;;
54937;SDS011;52756;52.826;6.214;2022-09-17T13:09:58;9.88;;;1.95;;
54937;SDS011;52756;52.826;6.214;2022-09-17T13:12:43;9.63;;;1.80;;
54937;SDS011;52756;52.826;6.214;2022-09-17T13:17:59;11.25;;;2.47;;
54937;SDS011;52756;52.826;6.214;2022-09-17T13:20:36;8.90;;;2.25;;
54937;SDS011;52756;52.826;6.214;2022-09-17T13:23:03;12.57;;;2.53;;
54937;SDS011;52756;52.826;6.214;2022-09-17T13:25:30;10.15;;;1.90;;
54937;SDS011;52756;52.826;6.214;2022-09-17T13:28:06;4.63;;;1.20;;
54937;SDS011;52756;52.826;6.214;2022-09-17T13:30:53;11.63;;;2.00;;
54937;SDS011;52756;52.826;6.214;2022-09-17T13:39:06;7.95;;;1.48;;
54937;SDS011;52756;52.826;6.214;2022-09-17T13:41:35;9.23;;;1.50;;
54937;SDS011;52756;52.826;6.214;2022-09-17T13:44:04;11.38;;;2.13;;
54937;SDS011;52756;52.826;6.214;2022-09-17T13:46:33;8.73;;;1.60;;
54937;SDS011;52756;52.826;6.214;2022-09-17T13:49:01;8.05;;;1.50;;
54937;SDS011;52756;52.826;6.214;2022-09-17T13:54:00;11.05;;;2.03;;
54937;SDS011;52756;52.826;6.214;2022-09-17T13:56:40;9.00;;;1.85;;
54937;SDS011;52756;52.826;6.214;2022-09-17T14:04:33;8.68;;;1.35;;
54937;SDS011;52756;52.826;6.214;2022-09-17T14:06:59;8.35;;;2.03;;
54937;SDS011;52756;52.826;6.214;2022-09-17T14:23:34;8.52;;;1.33;;
54937;SDS011;52756;52.826;6.214;2022-09-17T14:26:10;2.92;;;0.90;;
54937;SDS011;52756;52.826;6.214;2022-09-17T14:29:16;4.65;;;0.90;;
54937;SDS011;52756;52.826;6.214;2022-09-17T14:31:45;5.32;;;1.08;;
54937;SDS011;52756;52.826;6.214;2022-09-17T14:34:14;5.82;;;1.05;;
54937;SDS011;52756;52.826;6.214;2022-09-17T14:36:45;5.60;;;1.60;;
54937;SDS011;52756;52.826;6.214;2022-09-17T14:39:15;5.70;;;0.85;;
54937;SDS011;52756;52.826;6.214;2022-09-17T14:41:54;5.93;;;1.38;;
54937;SDS011;52756;52.826;6.214;2022-09-17T14:44:21;3.42;;;0.63;;
54937;SDS011;52756;52.826;6.214;2022-09-17T14:46:58;5.05;;;0.60;;
54937;SDS011;52756;52.826;6.214;2022-09-17T14:49:33;5.20;;;0.70;;
54937;SDS011;52756;52.826;6.214;2022-09-17T14:52:00;5.43;;;1.00;;
54937;SDS011;52756;52.826;6.214;2022-09-17T14:54:30;5.57;;;0.85;;
54937;SDS011;52756;52.826;6.214;2022-09-17T14:59:51;5.22;;;1.00;;
54937;SDS011;52756;52.826;6.214;2022-09-17T15:05:17;4.72;;;1.00;;
54937;SDS011;52756;52.826;6.214;2022-09-17T15:10:57;3.83;;;0.80;;
54937;SDS011;52756;52.826;6.214;2022-09-17T15:15:54;6.88;;;1.10;;
54937;SDS011;52756;52.826;6.214;2022-09-17T15:19:02;6.90;;;1.23;;
54937;SDS011;52756;52.826;6.214;2022-09-17T15:26:34;7.93;;;1.42;;
54937;SDS011;52756;52.826;6.214;2022-09-17T15:29:04;8.95;;;1.52;;
54937;SDS011;52756;52.826;6.214;2022-09-17T15:31:30;7.20;;;1.40;;
54937;SDS011;52756;52.826;6.214;2022-09-17T15:33:59;6.97;;;1.60;;
54937;SDS011;52756;52.826;6.214;2022-09-17T15:36:25;7.40;;;1.92;;
54937;SDS011;52756;52.826;6.214;2022-09-17T15:38:52;6.50;;;0.98;;
54937;SDS011;52756;52.826;6.214;2022-09-17T15:41:22;11.55;;;2.50;;
54937;SDS011;52756;52.826;6.214;2022-09-17T15:44:04;9.13;;;1.92;;
54937;SDS011;52756;52.826;6.214;2022-09-17T15:46:46;8.45;;;1.35;;
54937;SDS011;52756;52.826;6.214;2022-09-17T15:49:31;8.25;;;1.50;;
54937;SDS011;52756;52.826;6.214;2022-09-17T15:55:03;6.78;;;1.50;;
54937;SDS011;52756;52.826;6.214;2022-09-17T15:57:30;7.75;;;2.03;;
54937;SDS011;52756;52.826;6.214;2022-09-17T16:00:13;6.63;;;1.65;;
54937;SDS011;52756;52.826;6.214;2022-09-17T16:02:39;6.90;;;1.60;;
54937;SDS011;52756;52.826;6.214;2022-09-17T16:07:41;10.02;;;1.73;;
54937;SDS011;52756;52.826;6.214;2022-09-17T16:10:10;9.88;;;2.03;;
54937;SDS011;52756;52.826;6.214;2022-09-17T16:12:37;12.25;;;1.60;;
54937;SDS011;52756;52.826;6.214;2022-09-17T16:15:03;10.75;;;1.88;;
54937;SDS011;52756;52.826;6.214;2022-09-17T16:20:35;12.73;;;2.35;;
54937;SDS011;52756;52.826;6.214;2022-09-17T16:22:54;8.95;;;1.98;;
54937;SDS011;52756;52.826;6.214;2022-09-17T16:25:24;9.27;;;1.85;;
54937;SDS011;52756;52.826;6.214;2022-09-17T16:30:22;8.63;;;1.52;;
54937;SDS011;52756;52.826;6.214;2022-09-17T16:32:48;8.18;;;1.98;;
54937;SDS011;52756;52.826;6.214;2022-09-17T16:35:18;6.88;;;1.52;;
54937;SDS011;52756;52.826;6.214;2022-09-17T16:37:49;8.35;;;2.05;;
54937;SDS011;52756;52.826;6.214;2022-09-17T16:40:15;5.82;;;1.70;;
54937;SDS011;52756;52.826;6.214;2022-09-17T16:42:42;9.60;;;1.50;;
54937;SDS011;52756;52.826;6.214;2022-09-17T16:45:08;7.28;;;1.50;;
54937;SDS011;52756;52.826;6.214;2022-09-17T16:47:35;8.43;;;1.48;;
54937;SDS011;52756;52.826;6.214;2022-09-17T16:50:05;5.70;;;1.38;;
54937;SDS011;52756;52.826;6.214;2022-09-17T16:52:35;11.38;;;1.95;;
54937;SDS011;52756;52.826;6.214;2022-09-17T16:55:01;9.68;;;1.85;;
54937;SDS011;52756;52.826;6.214;2022-09-17T16:57:29;9.85;;;1.63;;
54937;SDS011;52756;52.826;6.214;2022-09-17T16:59:55;7.03;;;1.50;;
54937;SDS011;52756;52.826;6.214;2022-09-17T17:02:21;9.90;;;2.15;;
54937;SDS011;52756;52.826;6.214;2022-09-17T17:04:47;6.13;;;1.30;;
54937;SDS011;52756;52.826;6.214;2022-09-17T17:07:13;9.43;;;1.45;;
54937;SDS011;52756;52.826;6.214;2022-09-17T17:09:39;5.53;;;1.25;;
54937;SDS011;52756;52.826;6.214;2022-09-17T17:12:05;6.28;;;1.38;;
54937;SDS011;52756;52.826;6.214;2022-09-17T17:14:31;7.30;;;1.40;;
54937;SDS011;52756;52.826;6.214;2022-09-17T17:16:57;9.93;;;1.60;;
54937;SDS011;52756;52.826;6.214;2022-09-17T17:19:22;4.72;;;1.30;;
54937;SDS011;52756;52.826;6.214;2022-09-17T17:21:49;11.85;;;2.10;;
54937;SDS011;52756;52.826;6.214;2022-09-17T17:24:16;9.55;;;1.48;;
54937;SDS011;52756;52.826;6.214;2022-09-17T17:26:41;9.77;;;1.58;;
54937;SDS011;52756;52.826;6.214;2022-09-17T17:29:07;4.93;;;0.80;;
54937;SDS011;52756;52.826;6.214;2022-09-17T17:31:34;5.93;;;0.80;;
54937;SDS011;52756;52.826;6.214;2022-09-17T17:33:59;4.13;;;0.98;;
54937;SDS011;52756;52.826;6.214;2022-09-17T17:36:25;4.72;;;0.80;;
54937;SDS011;52756;52.826;6.214;2022-09-17T17:38:57;4.88;;;1.33;;
54937;SDS011;52756;52.826;6.214;2022-09-17T17:41:23;5.15;;;0.70;;
54937;SDS011;52756;52.826;6.214;2022-09-17T17:43:54;3.15;;;0.63;;
54937;SDS011;52756;52.826;6.214;2022-09-17T17:46:21;3.00;;;0.70;;
54937;SDS011;52756;52.826;6.214;2022-09-17T17:48:48;4.35;;;0.80;;
54937;SDS011;52756;52.826;6.214;2022-09-17T17:51:14;4.13;;;1.15;;
54937;SDS011;52756;52.826;6.214;2022-09-17T17:53:42;3.45;;;0.60;;
54937;SDS011;52756;52.826;6.214;2022-09-17T17:56:09;2.60;;;0.80;;
54937;SDS011;52756;52.826;6.214;2022-09-17T17:58:36;1.70;;;0.60;;
54937;SDS011;52756;52.826;6.214;2022-09-17T18:01:10;5.18;;;0.75;;
54937;SDS011;52756;52.826;6.214;2022-09-17T18:03:37;3.13;;;0.93;;
54937;SDS011;52756;52.826;6.214;2022-09-17T18:06:04;4.47;;;0.82;;
54937;SDS011;52756;52.826;6.214;2022-09-17T18:08:30;8.25;;;1.20;;
54937;SDS011;52756;52.826;6.214;2022-09-17T18:10:57;2.78;;;0.93;;
54937;SDS011;52756;52.826;6.214;2022-09-17T18:13:28;3.45;;;0.65;;
54937;SDS011;52756;52.826;6.214;2022-09-17T18:15:55;4.03;;;0.93;;
54937;SDS011;52756;52.826;6.214;2022-09-17T18:18:23;5.15;;;1.38;;
54937;SDS011;52756;52.826;6.214;2022-09-17T18:20:50;5.63;;;0.88;;
54937;SDS011;52756;52.826;6.214;2022-09-17T18:23:18;3.53;;;0.80;;
54937;SDS011;52756;52.826;6.214;2022-09-17T18:25:51;3.92;;;1.02;;
54937;SDS011;52756;52.826;6.214;2022-09-17T18:28:18;3.85;;;0.98;;
54937;SDS011;52756;52.826;6.214;2022-09-17T18:30:44;3.97;;;0.93;;
54937;SDS011;52756;52.826;6.214;2022-09-17T18:33:09;3.72;;;0.73;;
54937;SDS011;52756;52.826;6.214;2022-09-17T18:35:35;4.75;;;0.90;;
54937;SDS011;52756;52.826;6.214;2022-09-17T18:38:04;5.75;;;1.20;;
54937;SDS011;52756;52.826;6.214;2022-09-17T18:40:32;5.97;;;1.27;;
54937;SDS011;52756;52.826;6.214;2022-09-17T18:42:58;6.22;;;1.08;;
54937;SDS011;52756;52.826;6.214;2022-09-17T18:45:23;5.60;;;1.75;;
54937;SDS011;52756;52.826;6.214;2022-09-17T18:47:50;6.30;;;1.17;;
54937;SDS011;52756;52.826;6.214;2022-09-17T18:50:16;3.67;;;0.90;;
54937;SDS011;52756;52.826;6.214;2022-09-17T18:52:42;7.80;;;1.55;;
54937;SDS011;52756;52.826;6.214;2022-09-17T18:55:08;7.32;;;1.15;;
54937;SDS011;52756;52.826;6.214;2022-09-17T18:57:33;5.40;;;1.30;;